createdAt,value
2023-05-24T00:02:19.066Z,74.40
2023-05-24T00:04:45.978Z,74.40
2023-05-24T00:07:13.720Z,74.50
2023-05-24T00:09:40.535Z,74.50
2023-05-24T00:12:07.655Z,74.60
2023-05-24T00:14:34.576Z,74.70
2023-05-24T00:17:01.582Z,74.80
2023-05-24T00:19:29.185Z,74.80
2023-05-24T00:21:56.043Z,74.70
2023-05-24T00:24:22.889Z,74.70
2023-05-24T00:26:49.792Z,74.90
2023-05-24T00:29:16.621Z,74.90
2023-05-24T00:31:43.571Z,74.90
2023-05-24T00:34:10.599Z,74.90
2023-05-24T00:36:38.389Z,74.80
2023-05-24T00:39:05.423Z,74.80
2023-05-24T00:41:32.361Z,74.80
2023-05-24T00:43:59.299Z,74.70
2023-05-24T00:46:32.910Z,74.60
2023-05-24T00:49:00.860Z,74.80
2023-05-24T00:51:27.999Z,74.60
2023-05-24T00:53:55.153Z,74.60
2023-05-24T00:56:23.020Z,74.40
2023-05-24T00:58:50.865Z,74.20
2023-05-24T01:01:17.830Z,74.10
2023-05-24T01:03:46.245Z,73.90
2023-05-24T01:06:13.561Z,73.90
2023-05-24T01:08:40.588Z,73.90
2023-05-24T01:11:32.547Z,73.90
2023-05-24T01:14:19.973Z,73.80
2023-05-24T01:16:53.621Z,73.80
2023-05-24T01:19:49.708Z,72.80
2023-05-24T01:22:38.342Z,72.20
2023-05-24T01:25:08.137Z,71.80
2023-05-24T01:27:37.303Z,71.40
2023-05-24T01:30:04.622Z,71.30
2023-05-24T01:32:31.452Z,71.20
2023-05-24T01:34:58.271Z,71.10
2023-05-24T01:37:25.117Z,71.00
2023-05-24T01:39:52.093Z,71.00
2023-05-24T01:42:32.672Z,70.90
2023-05-24T01:45:14.626Z,71.10
2023-05-24T01:48:13.857Z,70.80
2023-05-24T01:50:46.664Z,70.60
2023-05-24T01:53:14.110Z,70.50
2023-05-24T01:55:40.953Z,70.30
2023-05-24T01:58:07.745Z,70.20
2023-05-24T02:00:34.661Z,70.30
2023-05-24T02:03:02.454Z,70.40
2023-05-24T02:05:29.431Z,70.40
2023-05-24T02:07:56.214Z,70.50
2023-05-24T02:10:24.044Z,70.60
2023-05-24T02:12:51.174Z,70.60
2023-05-24T02:15:17.990Z,70.80
2023-05-24T02:17:46.146Z,70.90
2023-05-24T02:20:13.541Z,71.10
2023-05-24T02:22:41.048Z,71.20
2023-05-24T02:25:08.310Z,71.50
2023-05-24T02:27:35.208Z,71.60
2023-05-24T02:30:02.111Z,71.70
2023-05-24T02:32:28.983Z,71.80
2023-05-24T02:34:56.040Z,72.40
2023-05-24T02:37:22.986Z,71.80
2023-05-24T02:39:49.795Z,71.80
2023-05-24T02:42:16.677Z,71.90
2023-05-24T02:44:43.556Z,72.00
2023-05-24T02:47:10.554Z,72.10
2023-05-24T02:49:37.422Z,72.10
2023-05-24T02:52:04.477Z,72.00
2023-05-24T02:54:31.336Z,72.10
2023-05-24T02:56:58.387Z,72.10
2023-05-24T02:59:25.462Z,72.20
2023-05-24T03:01:52.399Z,72.40
2023-05-24T03:04:19.357Z,72.50
2023-05-24T03:06:47.235Z,72.60
2023-05-24T03:09:16.718Z,72.50
2023-05-24T03:11:44.577Z,72.50
2023-05-24T03:14:11.442Z,72.60
2023-05-24T03:16:41.323Z,72.50
2023-05-24T03:19:10.016Z,72.40
2023-05-24T03:21:37.835Z,72.50
2023-05-24T03:24:05.699Z,72.50
2023-05-24T03:26:32.919Z,72.60
2023-05-24T03:28:59.789Z,72.80
2023-05-24T03:31:33.269Z,72.90
2023-05-24T03:34:00.361Z,73.00
2023-05-24T03:36:29.141Z,73.10
2023-05-24T03:38:58.392Z,73.10
2023-05-24T03:41:27.604Z,73.30
2023-05-24T03:43:57.996Z,73.50
2023-05-24T03:46:26.661Z,73.50
2023-05-24T03:48:54.588Z,73.60
2023-05-24T03:51:23.812Z,73.60
2023-05-24T03:53:50.602Z,73.70
2023-05-24T03:56:17.494Z,73.80
2023-05-24T03:58:44.387Z,74.00
2023-05-24T04:01:18.802Z,74.00
2023-05-24T04:03:56.092Z,74.00
2023-05-24T04:06:28.814Z,74.10
2023-05-24T04:08:56.724Z,74.10
2023-05-24T04:11:28.073Z,74.20
2023-05-24T04:13:55.963Z,74.20
2023-05-24T04:16:27.420Z,74.20
2023-05-24T04:18:57.620Z,74.30
2023-05-24T04:21:24.696Z,74.40
2023-05-24T04:23:52.822Z,74.50
2023-05-24T04:26:21.204Z,74.60
2023-05-24T04:28:48.607Z,75.30
2023-05-24T04:31:16.459Z,75.00
2023-05-24T04:33:43.482Z,75.40
2023-05-24T04:36:12.072Z,75.80
2023-05-24T04:38:39.745Z,76.20
2023-05-24T04:41:06.713Z,76.60
2023-05-24T04:43:36.584Z,76.90
2023-05-24T04:46:03.503Z,77.40
2023-05-24T04:48:30.399Z,77.80
2023-05-24T04:50:58.267Z,78.20
2023-05-24T04:53:25.711Z,78.50
2023-05-24T04:55:52.997Z,78.80
2023-05-24T04:58:19.944Z,79.10
2023-05-24T05:00:46.821Z,79.30
2023-05-24T05:03:13.983Z,79.40
2023-05-24T05:05:41.005Z,79.40
2023-05-24T05:08:07.904Z,79.50
2023-05-24T05:10:35.806Z,79.70
2023-05-24T05:13:02.671Z,79.80
2023-05-24T05:15:29.659Z,79.90
2023-05-24T05:17:57.216Z,80.10
2023-05-24T05:20:24.776Z,80.20
2023-05-24T05:22:51.675Z,80.30
2023-05-24T05:25:18.578Z,80.40
2023-05-24T05:27:45.358Z,80.40
2023-05-24T05:30:12.707Z,80.50
2023-05-24T05:32:40.080Z,80.50
2023-05-24T05:35:07.501Z,80.50
2023-05-24T05:37:34.400Z,80.40
2023-05-24T05:40:01.226Z,80.50
2023-05-24T05:42:28.114Z,80.50
2023-05-24T05:44:54.973Z,80.50
2023-05-24T05:47:21.862Z,80.60
2023-05-24T05:49:48.709Z,80.60
2023-05-24T05:52:15.773Z,80.50
2023-05-24T05:54:42.859Z,80.50
2023-05-24T05:57:11.627Z,80.30
2023-05-24T05:59:38.554Z,80.30
2023-05-24T06:02:06.718Z,80.30
2023-05-24T06:04:34.110Z,80.20
2023-05-24T06:07:01.243Z,80.30
2023-05-24T06:09:28.123Z,80.20
2023-05-24T06:11:54.994Z,80.20
2023-05-24T06:14:22.606Z,80.20
2023-05-24T06:16:49.743Z,80.20
2023-05-24T06:19:16.962Z,80.20
2023-05-24T06:21:48.272Z,80.00
2023-05-24T06:24:15.751Z,80.00
2023-05-24T06:26:43.041Z,79.90
2023-05-24T06:29:09.883Z,79.80
2023-05-24T06:31:36.788Z,79.70
2023-05-24T06:34:04.842Z,79.70
2023-05-24T06:36:43.121Z,79.60
2023-05-24T06:39:10.891Z,79.50
2023-05-24T06:41:39.016Z,79.30
2023-05-24T06:44:06.193Z,79.20
2023-05-24T06:46:33.026Z,79.20
2023-05-24T06:49:00.012Z,78.90
2023-05-24T06:51:26.875Z,78.60
2023-05-24T06:53:53.926Z,78.20
2023-05-24T06:56:21.481Z,77.90
2023-05-24T06:58:48.404Z,77.50
2023-05-24T07:01:15.497Z,77.30
2023-05-24T07:03:42.671Z,77.10
2023-05-24T07:06:12.182Z,77.00
2023-05-24T07:08:38.998Z,76.90
2023-05-24T07:11:06.313Z,76.80
2023-05-24T07:13:33.400Z,76.60
2023-05-24T07:16:00.546Z,76.50
2023-05-24T07:18:27.417Z,76.40
2023-05-24T07:20:54.974Z,76.30
2023-05-24T07:23:21.810Z,76.10
2023-05-24T07:25:49.427Z,76.10
2023-05-24T07:28:18.053Z,75.90
2023-05-24T07:30:45.327Z,75.60
2023-05-24T07:33:12.424Z,75.50
2023-05-24T07:35:39.671Z,75.60
2023-05-24T07:38:06.969Z,75.40
2023-05-24T07:40:34.238Z,75.20
2023-05-24T07:43:01.075Z,75.10
2023-05-24T07:45:28.109Z,74.90
2023-05-24T07:47:56.874Z,74.80
2023-05-24T07:50:24.033Z,74.60
2023-05-24T07:52:51.343Z,74.30
2023-05-24T07:55:18.228Z,74.10
2023-05-24T07:57:45.110Z,73.90
2023-05-24T08:00:14.811Z,73.70
2023-05-24T08:02:42.767Z,73.60
2023-05-24T08:05:12.567Z,73.50
2023-05-24T08:07:40.819Z,73.70
2023-05-24T08:10:09.115Z,73.50
2023-05-24T08:12:37.226Z,73.20
2023-05-24T08:15:04.986Z,73.00
2023-05-24T08:17:31.926Z,72.60
2023-05-24T08:19:58.964Z,72.40
2023-05-24T08:22:25.980Z,72.30
2023-05-24T08:24:53.200Z,72.00
2023-05-24T08:27:20.292Z,71.50
2023-05-24T08:29:47.146Z,71.10
2023-05-24T08:32:14.111Z,70.60
2023-05-24T08:34:41.097Z,70.10
2023-05-24T08:37:09.327Z,69.80
2023-05-24T08:39:36.217Z,69.80
2023-05-24T08:42:09.917Z,69.60
2023-05-24T08:44:53.368Z,69.40
2023-05-24T08:47:23.296Z,69.00
2023-05-24T08:49:51.955Z,68.70
2023-05-24T08:52:19.807Z,68.40
2023-05-24T08:54:46.641Z,68.00
2023-05-24T08:57:13.875Z,67.80
2023-05-24T08:59:41.357Z,67.60
2023-05-24T09:02:10.787Z,67.60
2023-05-24T09:04:41.731Z,67.30
2023-05-24T09:07:08.610Z,67.20
2023-05-24T09:09:35.550Z,67.00
2023-05-24T09:12:04.441Z,66.80
2023-05-24T09:14:31.335Z,66.40
2023-05-24T09:16:58.167Z,66.80
2023-05-24T09:19:27.837Z,65.90
2023-05-24T09:21:54.796Z,65.80
2023-05-24T09:24:23.308Z,65.70
2023-05-24T09:26:50.971Z,65.60
2023-05-24T09:29:21.899Z,65.40
2023-05-24T09:31:48.833Z,65.00
2023-05-24T09:34:16.631Z,64.70
2023-05-24T09:36:43.502Z,64.60
2023-05-24T09:39:10.599Z,64.40
2023-05-24T09:41:37.704Z,64.10
2023-05-24T09:44:05.325Z,63.80
2023-05-24T09:46:38.800Z,63.30
2023-05-24T09:49:08.134Z,63.10
2023-05-24T09:51:39.128Z,63.00
2023-05-24T09:54:06.179Z,63.00
2023-05-24T09:56:36.059Z,62.80
2023-05-24T09:59:08.275Z,62.50
2023-05-24T10:01:36.107Z,62.00
2023-05-24T10:04:09.410Z,61.60
2023-05-24T10:06:38.576Z,61.50
2023-05-24T10:09:09.134Z,61.00
2023-05-24T10:11:39.886Z,61.00
2023-05-24T10:14:07.408Z,60.60
2023-05-24T10:16:34.291Z,61.00
2023-05-24T10:19:01.193Z,60.60
2023-05-24T10:21:29.096Z,60.10
2023-05-24T10:23:58.152Z,59.80
2023-05-24T10:26:26.292Z,59.60
2023-05-24T10:28:55.977Z,59.20
2023-05-24T10:31:34.724Z,58.80
2023-05-24T10:34:07.836Z,58.50
2023-05-24T10:36:36.882Z,58.10
2023-05-24T10:39:03.787Z,58.20
2023-05-24T10:41:30.773Z,57.60
2023-05-24T10:44:09.352Z,57.50
2023-05-24T10:46:38.328Z,57.10
2023-05-24T10:49:07.624Z,57.20
2023-05-24T10:51:41.174Z,57.30
2023-05-24T10:54:27.400Z,56.70
2023-05-24T10:56:54.558Z,56.50
2023-05-24T10:59:37.497Z,56.40
2023-05-24T11:02:15.108Z,55.90
2023-05-24T11:04:43.738Z,55.50
2023-05-24T11:07:11.500Z,55.00
2023-05-24T11:09:46.013Z,54.60
2023-05-24T11:12:23.541Z,54.00
2023-05-24T11:14:52.430Z,53.90
2023-05-24T11:17:21.895Z,53.90
2023-05-24T11:19:55.258Z,53.70
2023-05-24T11:22:23.199Z,53.60
2023-05-24T11:24:50.031Z,53.80
2023-05-24T11:27:17.301Z,53.60
2023-05-24T11:29:45.662Z,53.20
2023-05-24T11:32:17.038Z,52.60
2023-05-24T11:34:48.915Z,52.30
2023-05-24T11:37:17.517Z,52.20
2023-05-24T11:39:50.137Z,52.60
2023-05-24T11:42:17.593Z,52.70
2023-05-24T11:44:44.780Z,52.70
2023-05-24T11:47:12.651Z,52.20
2023-05-24T11:49:39.711Z,51.80
2023-05-24T11:52:07.479Z,51.60
2023-05-24T11:54:37.407Z,51.00
2023-05-24T11:57:05.540Z,50.70
2023-05-24T11:59:32.871Z,50.20
2023-05-24T12:02:02.051Z,50.20
2023-05-24T12:04:29.712Z,49.90
2023-05-24T12:06:56.979Z,49.70
2023-05-24T12:09:24.671Z,49.60
2023-05-24T12:11:52.132Z,50.10
2023-05-24T12:14:20.651Z,50.50
2023-05-24T12:16:47.667Z,50.70
2023-05-24T12:19:33.323Z,50.50
2023-05-24T12:22:01.794Z,49.70
2023-05-24T12:24:29.050Z,49.70
2023-05-24T12:27:07.539Z,49.50
2023-05-24T12:29:39.853Z,49.00
2023-05-24T12:32:12.285Z,49.10
2023-05-24T12:34:43.471Z,49.10
2023-05-24T12:37:12.496Z,48.90
2023-05-24T12:39:42.486Z,48.30
2023-05-24T12:42:10.697Z,48.40
2023-05-24T12:44:38.153Z,48.10
2023-05-24T12:47:06.729Z,48.00
2023-05-24T12:49:33.910Z,47.80
2023-05-24T12:52:01.953Z,47.90
2023-05-24T12:54:29.097Z,48.10
2023-05-24T12:56:57.489Z,48.00
2023-05-24T12:59:25.997Z,48.00
2023-05-24T13:01:53.323Z,47.90
2023-05-24T13:04:21.519Z,47.80
2023-05-24T13:06:48.807Z,47.60
2023-05-24T13:09:18.855Z,46.70
2023-05-24T13:11:46.774Z,46.40
2023-05-24T13:14:15.476Z,45.90
2023-05-24T13:16:42.543Z,46.00
2023-05-24T13:19:10.372Z,46.30
2023-05-24T13:21:37.410Z,46.30
2023-05-24T13:24:06.423Z,46.30
2023-05-24T13:26:37.674Z,45.90
2023-05-24T13:31:38.746Z,46.10
2023-05-24T13:34:06.174Z,45.80
2023-05-24T13:36:33.477Z,46.00
2023-05-24T13:39:14.176Z,46.20
2023-05-24T13:41:42.225Z,45.80
2023-05-24T13:44:10.000Z,45.40
2023-05-24T13:46:37.396Z,45.10
2023-05-24T13:49:04.877Z,44.90
2023-05-24T13:51:31.927Z,44.50
2023-05-24T13:53:59.633Z,45.10
2023-05-24T13:56:32.487Z,45.10
2023-05-24T13:58:59.698Z,44.90
2023-05-24T14:01:26.898Z,45.00
2023-05-24T14:03:53.737Z,44.90
2023-05-24T14:06:21.860Z,44.50
2023-05-24T14:08:49.204Z,44.20
2023-05-24T14:11:16.256Z,43.70
2023-05-24T14:14:43.052Z,43.30
2023-05-24T14:16:30.546Z,42.90
2023-05-24T14:18:57.562Z,42.00
2023-05-24T14:21:26.755Z,42.00
2023-05-24T14:23:53.909Z,41.70
2023-05-24T14:26:23.412Z,41.00
2023-05-24T14:28:52.294Z,40.40
2023-05-24T14:31:20.653Z,40.10
2023-05-24T14:33:47.535Z,40.00
2023-05-24T14:36:14.368Z,40.30
2023-05-24T14:38:41.554Z,40.80
2023-05-24T14:41:09.270Z,41.10
2023-05-24T14:43:37.637Z,40.90
2023-05-24T14:46:04.719Z,40.50
2023-05-24T14:48:31.610Z,40.40
2023-05-24T14:50:58.460Z,39.90
2023-05-24T14:53:25.368Z,39.70
2023-05-24T14:55:54.364Z,39.30
2023-05-24T14:58:21.377Z,38.80
2023-05-24T15:00:48.449Z,38.40
2023-05-24T15:03:15.657Z,38.00
2023-05-24T15:05:42.983Z,37.80
2023-05-24T15:08:11.725Z,37.60
2023-05-24T15:10:44.389Z,37.20
2023-05-24T15:13:11.831Z,37.10
2023-05-24T15:15:38.809Z,36.70
2023-05-24T15:18:06.802Z,37.30
2023-05-24T15:20:35.881Z,36.70
2023-05-24T15:23:03.373Z,36.50
2023-05-24T15:25:30.342Z,36.50
2023-05-24T15:27:57.942Z,36.40
2023-05-24T15:30:24.845Z,36.20
2023-05-24T15:32:51.884Z,36.10
2023-05-24T15:35:18.858Z,35.60
2023-05-24T15:37:46.104Z,36.00
2023-05-24T15:40:13.612Z,35.80
2023-05-24T15:42:40.641Z,35.40
2023-05-24T15:45:07.963Z,35.60
2023-05-24T15:47:40.078Z,35.40
2023-05-24T15:50:07.829Z,35.00
2023-05-24T15:52:35.071Z,35.30
2023-05-24T15:55:02.039Z,35.10
2023-05-24T15:57:28.862Z,34.90
2023-05-24T15:59:55.696Z,34.70
2023-05-24T16:02:22.750Z,34.50
2023-05-24T16:04:50.218Z,34.40
2023-05-24T16:07:18.168Z,34.50
2023-05-24T16:09:46.793Z,34.40
2023-05-24T16:12:13.688Z,34.20
2023-05-24T16:14:40.481Z,34.00
2023-05-24T16:17:07.449Z,33.90
2023-05-24T16:19:34.367Z,33.80
2023-05-24T16:22:01.171Z,33.80
2023-05-24T16:24:28.088Z,33.90
2023-05-24T16:26:55.648Z,33.80
2023-05-24T16:29:22.429Z,34.00
2023-05-24T16:31:49.323Z,34.40
2023-05-24T16:34:16.451Z,34.80
2023-05-24T16:36:45.743Z,34.90
2023-05-24T16:39:12.666Z,35.10
2023-05-24T16:41:40.423Z,35.30
2023-05-24T16:44:07.271Z,35.30
2023-05-24T16:46:34.561Z,35.10
2023-05-24T16:49:03.094Z,34.80
2023-05-24T16:51:30.335Z,34.70
2023-05-24T16:53:57.200Z,34.50
2023-05-24T16:56:24.083Z,34.30
2023-05-24T16:58:51.249Z,34.50
2023-05-24T17:01:18.232Z,35.00
2023-05-24T17:03:45.243Z,35.50
2023-05-24T17:06:12.171Z,36.00
2023-05-24T17:08:38.987Z,36.20
2023-05-24T17:11:06.585Z,36.20
2023-05-24T17:13:33.421Z,35.90
2023-05-24T17:16:00.718Z,35.60
2023-05-24T17:18:30.613Z,35.30
2023-05-24T17:20:58.026Z,34.80
2023-05-24T17:23:25.958Z,34.50
2023-05-24T17:25:53.484Z,34.30
2023-05-24T17:28:20.504Z,34.10
2023-05-24T17:30:47.683Z,34.00
2023-05-24T17:33:14.548Z,33.90
2023-05-24T17:35:43.169Z,33.90
2023-05-24T17:38:10.152Z,33.80
2023-05-24T17:40:37.051Z,33.80
2023-05-24T17:43:03.906Z,33.80
2023-05-24T17:45:30.795Z,33.80
2023-05-24T17:47:58.639Z,34.00
2023-05-24T17:50:25.847Z,34.20
2023-05-24T17:52:52.714Z,34.40
2023-05-24T17:55:19.655Z,34.90
2023-05-24T17:57:47.694Z,35.70
2023-05-24T18:00:14.813Z,36.60
2023-05-24T18:02:45.901Z,37.30
2023-05-24T18:05:13.587Z,37.90
2023-05-24T18:07:40.506Z,38.60
2023-05-24T18:10:07.898Z,39.00
2023-05-24T18:12:34.700Z,39.60
2023-05-24T18:15:01.531Z,40.20
2023-05-24T18:17:28.496Z,40.50
2023-05-24T18:19:55.552Z,40.90
2023-05-24T18:22:22.514Z,41.50
2023-05-24T18:24:49.354Z,41.90
2023-05-24T18:27:16.179Z,42.20
2023-05-24T18:29:43.182Z,42.80
2023-05-24T18:32:10.088Z,43.20
2023-05-24T18:34:36.989Z,43.70
2023-05-24T18:37:04.156Z,44.10
2023-05-24T18:39:31.089Z,44.50
2023-05-24T18:41:57.903Z,45.00
2023-05-24T18:44:24.758Z,45.40
2023-05-24T18:46:55.460Z,45.90
2023-05-24T18:49:23.101Z,46.10
2023-05-24T18:51:49.989Z,47.00
2023-05-24T18:54:16.869Z,46.60
2023-05-24T18:56:43.896Z,46.90
2023-05-24T18:59:12.425Z,47.10
2023-05-24T19:01:39.540Z,47.60
2023-05-24T19:04:06.384Z,48.00
2023-05-24T19:06:33.282Z,48.50
2023-05-24T19:09:00.568Z,49.00
2023-05-24T19:11:28.073Z,49.40
2023-05-24T19:13:54.937Z,49.90
2023-05-24T19:16:21.813Z,50.50
2023-05-24T19:18:48.618Z,51.10
2023-05-24T19:21:15.670Z,51.70
2023-05-24T19:23:42.651Z,52.20
2023-05-24T19:26:09.611Z,52.80
2023-05-24T19:28:40.224Z,53.20
2023-05-24T19:31:07.482Z,53.70
2023-05-24T19:33:35.059Z,54.00
2023-05-24T19:36:03.331Z,54.20
2023-05-24T19:38:30.333Z,54.30
2023-05-24T19:40:57.682Z,54.50
2023-05-24T19:43:24.596Z,54.60
2023-05-24T19:45:51.853Z,55.00
2023-05-24T19:48:18.846Z,55.40
2023-05-24T19:50:48.602Z,55.90
2023-05-24T19:53:16.047Z,56.30
2023-05-24T19:55:43.284Z,56.70
2023-05-24T19:58:10.428Z,57.10
2023-05-24T20:00:37.271Z,57.60
2023-05-24T20:03:04.257Z,57.90
2023-05-24T20:05:31.128Z,58.20
2023-05-24T20:07:57.996Z,58.60
2023-05-24T20:10:25.147Z,58.90
2023-05-24T20:12:52.034Z,59.30
2023-05-24T20:15:18.930Z,59.70
2023-05-24T20:17:46.158Z,60.10
2023-05-24T20:20:13.070Z,60.30
2023-05-24T20:22:39.895Z,60.50
2023-05-24T20:25:07.783Z,60.70
2023-05-24T20:27:34.795Z,61.00
2023-05-24T20:30:02.338Z,61.30
2023-05-24T20:32:29.205Z,61.50
2023-05-24T20:34:56.111Z,61.80
2023-05-24T20:37:23.120Z,62.20
2023-05-24T20:39:49.920Z,62.50
2023-05-24T20:42:18.263Z,62.80
2023-05-24T20:44:45.266Z,63.00
2023-05-24T20:47:12.223Z,63.20
2023-05-24T20:49:39.031Z,63.50
2023-05-24T20:52:06.258Z,63.70
2023-05-24T20:54:33.107Z,64.00
2023-05-24T20:56:59.955Z,64.10
2023-05-24T20:59:26.852Z,64.20
2023-05-24T21:01:53.716Z,64.40
2023-05-24T21:04:20.627Z,64.50
2023-05-24T21:06:47.459Z,64.30
2023-05-24T21:09:14.276Z,64.20
2023-05-24T21:11:41.329Z,64.00
2023-05-24T21:14:09.274Z,64.00
2023-05-24T21:16:36.506Z,64.00
2023-05-24T21:19:03.380Z,64.10
2023-05-24T21:21:30.336Z,64.40
2023-05-24T21:23:57.876Z,64.60
2023-05-24T21:26:24.756Z,64.80
2023-05-24T21:28:51.931Z,64.90
2023-05-24T21:31:20.582Z,65.10
2023-05-24T21:33:47.397Z,65.20
2023-05-24T21:36:14.190Z,65.40
2023-05-24T21:38:40.994Z,65.60
2023-05-24T21:41:07.774Z,65.80
2023-05-24T21:43:34.606Z,65.90
2023-05-24T21:46:01.447Z,66.10
2023-05-24T21:48:28.272Z,66.20
2023-05-24T21:50:55.154Z,66.30
2023-05-24T21:53:22.015Z,66.50
2023-05-24T21:55:49.099Z,66.80
2023-05-24T21:58:15.933Z,67.00
2023-05-24T22:00:42.877Z,67.10
2023-05-24T22:03:09.832Z,67.30
2023-05-24T22:05:36.753Z,67.50
2023-05-24T22:08:03.556Z,67.80
2023-05-24T22:10:30.501Z,68.00
2023-05-24T22:12:57.337Z,68.30
2023-05-24T22:15:24.157Z,68.50
2023-05-24T22:17:50.977Z,68.70
2023-05-24T22:20:19.136Z,68.90
2023-05-24T22:22:53.255Z,69.20
2023-05-24T22:25:20.996Z,69.50
2023-05-24T22:27:51.198Z,69.70
2023-05-24T22:30:18.090Z,69.90
2023-05-24T22:32:45.039Z,70.20
2023-05-24T22:35:12.053Z,70.90
2023-05-24T22:37:39.067Z,70.70
2023-05-24T22:40:06.489Z,70.90
2023-05-24T22:42:33.376Z,71.00
2023-05-24T22:45:00.517Z,71.20
2023-05-24T22:47:28.746Z,71.30
2023-05-24T22:49:56.453Z,71.60
2023-05-24T22:52:24.646Z,71.80
2023-05-24T22:54:51.549Z,72.00
2023-05-24T22:57:22.472Z,72.20
2023-05-24T22:59:49.451Z,72.40
2023-05-24T23:02:16.293Z,72.60
2023-05-24T23:04:46.390Z,72.80
2023-05-24T23:07:15.330Z,73.10
2023-05-24T23:09:42.975Z,73.30
2023-05-24T23:12:10.445Z,73.50
2023-05-24T23:14:38.288Z,73.70
2023-05-24T23:17:06.177Z,73.90
2023-05-24T23:19:33.031Z,74.00
2023-05-24T23:21:59.939Z,74.20
2023-05-24T23:24:26.843Z,74.40
2023-05-24T23:26:55.771Z,74.60
2023-05-24T23:29:22.630Z,74.80
2023-05-24T23:31:49.494Z,74.90
2023-05-24T23:34:16.409Z,75.10
2023-05-24T23:36:43.319Z,75.20
2023-05-24T23:39:12.514Z,75.40
2023-05-24T23:41:39.458Z,75.60
2023-05-24T23:44:06.538Z,75.70
2023-05-24T23:49:46.938Z,76.30
2023-05-24T23:52:15.241Z,75.80
2023-05-24T23:54:42.083Z,76.10
2023-05-24T23:57:08.931Z,76.20
2023-05-24T23:59:35.826Z,76.40
